Time;durP1;ratioP1;P1;durP2;ratioP2;P2;SDS_P1;SDS_P2;PMS_P1;PMS_P2;Temp;Humidity;BMP_temperature;BMP_pressure;BME280_temperature;BME280_humidity;BME280_pressure;Samples;Min_cycle;Max_cycle;Signal;HPM_P1;HPM_P2
2022/07/25 00:01:30;;;;;;;;;;;;;;;16.40;51.20;100793.33;1712202;83;20712;-78
2022/07/25 00:03:56;;;;;;;;;;;;;;;16.34;51.27;100786.06;1712195;83;20216;-78
2022/07/25 00:06:22;;;;;;;;;;;;;;;16.35;51.32;100793.12;1712008;83;21988;-77
2022/07/25 00:08:48;;;;;;;;;;;;;;;16.46;51.30;100787.69;1712143;83;20175;-77
2022/07/25 00:11:13;;;;;;;;;;;;;;;16.55;51.24;100785.65;1711774;83;20287;-77
2022/07/25 00:13:39;;;;;;;;;;;;;;;16.63;51.18;100786.88;1712242;84;20223;-77
2022/07/25 00:16:05;;;;;;;;;;;;;;;16.67;51.12;100783.59;1712031;84;20755;-77
2022/07/25 00:18:31;;;;;;;;;;;;;;;16.71;51.08;100773.25;1712083;83;21088;-77
2022/07/25 00:20:57;;;;;;;;;;;;;;;16.77;51.06;100780.00;1711988;84;20243;-79
2022/07/25 00:23:23;;;;;;;;;;;;;;;16.80;51.01;100776.91;1712200;84;20221;-77
2022/07/25 00:25:49;;;;;;;;;;;;;;;16.82;50.97;100775.34;1711831;84;20168;-78
2022/07/25 00:28:15;;;;;;;;;;;;;;;16.86;50.91;100772.56;1711941;84;20152;-77
2022/07/25 00:30:41;;;;;;;;;;;;;;;16.90;50.88;100775.17;1712172;83;21185;-77
2022/07/25 00:33:06;;;;;;;;;;;;;;;16.95;50.82;100772.72;1711985;83;20788;-77
2022/07/25 00:35:32;;;;;;;;;;;;;;;16.98;50.79;100775.00;1712107;84;20322;-77
2022/07/25 00:37:58;;;;;;;;;;;;;;;16.98;50.73;100770.45;1712189;83;20160;-78
2022/07/25 00:40:24;;;;;;;;;;;;;;;17.02;50.69;100772.22;1712037;83;20255;-78
2022/07/25 00:42:50;;;;;;;;;;;;;;;17.02;50.71;100768.18;1712105;83;21989;-78
2022/07/25 00:45:16;;;;;;;;;;;;;;;17.07;50.65;100768.38;1712011;84;20441;-77
2022/07/25 00:47:42;;;;;;;;;;;;;;;17.06;50.61;100761.36;1712154;84;20207;-78
2022/07/25 00:50:08;;;;;;;;;;;;;;;17.07;50.60;100762.99;1711731;84;20243;-78
2022/07/25 00:52:34;;;;;;;;;;;;;;;17.08;50.58;100760.62;1712157;84;20199;-78
2022/07/25 00:55:00;;;;;;;;;;;;;;;17.11;50.56;100766.95;1711544;83;21167;-78
2022/07/25 00:57:25;;;;;;;;;;;;;;;17.11;50.54;100764.77;1712068;83;20189;-78
2022/07/25 00:59:51;;;;;;;;;;;;;;;17.08;50.54;100767.36;1712104;84;20630;-78
2022/07/25 01:02:17;;;;;;;;;;;;;;;17.09;50.55;100770.38;1712152;83;20549;-78
2022/07/25 01:04:43;;;;;;;;;;;;;;;17.07;50.53;100768.38;1712249;83;20212;-78
2022/07/25 01:07:09;;;;;;;;;;;;;;;17.06;50.54;100768.09;1711820;83;21141;-78
2022/07/25 01:09:35;;;;;;;;;;;;;;;17.05;50.55;100763.73;1712043;84;20263;-77
2022/07/25 01:12:01;;;;;;;;;;;;;;;17.05;50.57;100756.16;1711807;84;20178;-77
2022/07/25 01:14:27;;;;;;;;;;;;;;;17.04;50.57;100759.88;1712293;84;20167;-78
2022/07/25 01:16:52;;;;;;;;;;;;;;;16.98;50.58;100752.94;1712113;83;20843;-78
2022/07/25 01:19:18;;;;;;;;;;;;;;;16.95;50.62;100755.20;1712023;83;21184;-78
2022/07/25 01:21:44;;;;;;;;;;;;;;;16.93;50.65;100751.34;1711979;83;20192;-78
2022/07/25 01:24:10;;;;;;;;;;;;;;;16.91;50.69;100747.20;1712077;83;20231;-78
2022/07/25 01:26:36;;;;;;;;;;;;;;;16.89;50.72;100747.91;1712168;84;20148;-78
2022/07/25 01:29:02;;;;;;;;;;;;;;;16.86;50.77;100748.31;1712181;83;20177;-78
2022/07/25 01:31:28;;;;;;;;;;;;;;;16.84;50.80;100743.66;1712037;83;21845;-78
2022/07/25 01:33:54;;;;;;;;;;;;;;;16.83;50.84;100739.30;1711990;84;20243;-78
2022/07/25 01:36:20;;;;;;;;;;;;;;;16.80;50.87;100743.74;1712274;84;20318;-78
2022/07/25 01:38:46;;;;;;;;;;;;;;;16.76;50.95;100738.44;1712113;83;20207;-78
2022/07/25 01:41:11;;;;;;;;;;;;;;;16.75;50.99;100735.42;1712304;83;20148;-78
2022/07/25 01:43:38;;;;;;;;;;;;;;;16.75;51.06;100739.47;1712130;84;21807;-78
2022/07/25 01:46:04;;;;;;;;;;;;;;;16.76;51.09;100737.09;1711889;84;20157;-77
2022/07/25 01:48:29;;;;;;;;;;;;;;;16.80;51.17;100735.16;1712102;83;20193;-78
2022/07/25 01:50:55;;;;;;;;;;;;;;;16.81;51.19;100730.09;1711666;83;20835;-78
2022/07/25 01:53:21;;;;;;;;;;;;;;;16.83;51.25;100728.52;1711820;83;20303;-77
2022/07/25 01:55:47;;;;;;;;;;;;;;;16.84;51.31;100723.45;1710794;83;21163;-78
2022/07/25 01:58:13;;;;;;;;;;;;;;;16.84;51.34;100722.11;1709960;84;20182;-78
2022/07/25 02:00:39;;;;;;;;;;;;;;;16.82;51.39;100721.46;1710263;84;20715;-78
2022/07/25 02:05:49;;;;;;;;;;;;;;;16.81;51.49;100716.62;1710257;84;20209;-78
2022/07/25 02:08:15;;;;;;;;;;;;;;;16.83;51.58;100724.48;1709799;84;21952;-77
2022/07/25 02:10:41;;;;;;;;;;;;;;;16.81;51.60;100718.48;1710188;84;20219;-78
2022/07/25 02:13:07;;;;;;;;;;;;;;;16.80;51.66;100723.54;1710424;82;20180;-78
2022/07/25 02:15:33;;;;;;;;;;;;;;;16.76;51.73;100719.59;1710270;84;20180;-78
2022/07/25 02:17:58;;;;;;;;;;;;;;;16.73;51.78;100714.09;1713657;83;20136;-78
2022/07/25 02:20:24;;;;;;;;;;;;;;;16.71;51.85;100711.30;1709878;84;21797;-78
2022/07/25 02:22:50;;;;;;;;;;;;;;;16.67;51.89;100709.53;1710309;84;20176;-78
2022/07/25 02:25:16;;;;;;;;;;;;;;;16.67;51.96;100714.08;1709898;84;20184;-78
2022/07/25 02:27:42;;;;;;;;;;;;;;;16.64;52.03;100706.41;1710150;84;20203;-78
2022/07/25 02:30:08;;;;;;;;;;;;;;;16.63;52.09;100704.73;1710147;84;20168;-78
2022/07/25 02:32:34;;;;;;;;;;;;;;;16.60;52.18;100705.14;1711756;82;21183;-77
2022/07/25 02:35:00;;;;;;;;;;;;;;;16.57;52.23;100708.24;1710142;82;20215;-78
2022/07/25 02:37:26;;;;;;;;;;;;;;;16.55;52.32;100708.91;1710218;82;20187;-78
2022/07/25 02:39:51;;;;;;;;;;;;;;;16.54;52.41;100707.27;1710170;82;20184;-78
2022/07/25 02:42:17;;;;;;;;;;;;;;;16.54;52.48;100709.96;1709592;84;20164;-78
2022/07/25 02:44:43;;;;;;;;;;;;;;;16.53;52.55;100715.02;1710420;82;21664;-78
2022/07/25 02:47:09;;;;;;;;;;;;;;;16.53;52.60;100705.59;1710090;82;20279;-78
2022/07/25 02:49:34;;;;;;;;;;;;;;;16.49;52.66;100699.27;1726810;82;20300;-78
2022/07/25 02:52:00;;;;;;;;;;;;;;;16.50;52.74;100706.30;1719512;81;20176;-78
2022/07/25 02:54:26;;;;;;;;;;;;;;;16.50;52.80;100695.53;1709681;84;20196;-77
2022/07/25 02:56:52;;;;;;;;;;;;;;;16.49;52.86;100692.55;1711834;83;21094;-78
2022/07/25 02:59:18;;;;;;;;;;;;;;;16.48;52.93;100696.26;1711965;83;20179;-77
2022/07/25 03:01:43;;;;;;;;;;;;;;;16.48;52.98;100697.61;1712404;83;20227;-78
2022/07/25 03:04:09;;;;;;;;;;;;;;;16.47;53.02;100698.63;1712014;84;20761;-78
2022/07/25 03:06:35;;;;;;;;;;;;;;;16.47;53.08;100701.31;1712214;84;20192;-77
2022/07/25 03:09:01;;;;;;;;;;;;;;;16.49;53.13;100697.09;1712140;84;21990;-77
2022/07/25 03:11:27;;;;;;;;;;;;;;;16.51;53.19;100703.09;1712123;83;20259;-77
2022/07/25 03:13:53;;;;;;;;;;;;;;;16.50;53.21;100702.26;1712170;84;20290;-77
2022/07/25 03:16:19;;;;;;;;;;;;;;;16.51;53.27;100703.09;1712184;82;20169;-78
2022/07/25 03:18:45;;;;;;;;;;;;;;;16.50;53.30;100702.26;1712348;84;20176;-77
2022/07/25 03:21:11;;;;;;;;;;;;;;;16.54;53.34;100704.58;1712047;84;21834;-77
2022/07/25 03:23:37;;;;;;;;;;;;;;;16.55;53.36;100698.14;1711854;83;20234;-78
2022/07/25 03:26:03;;;;;;;;;;;;;;;16.56;53.40;100697.15;1711616;84;20215;-77
2022/07/25 03:28:29;;;;;;;;;;;;;;;16.58;53.41;100697.77;1711484;84;20174;-78
2022/07/25 03:30:55;;;;;;;;;;;;;;;16.59;53.46;100695.39;1711142;83;20744;-77
2022/07/25 03:33:21;;;;;;;;;;;;;;;16.58;53.49;100691.03;1711567;83;21651;-78
2022/07/25 03:35:47;;;;;;;;;;;;;;;16.58;53.57;100686.48;1711407;83;20211;-78
2022/07/25 03:38:12;;;;;;;;;;;;;;;16.59;53.63;100690.84;1711399;83;20191;-77
2022/07/25 03:40:38;;;;;;;;;;;;;;;16.61;53.69;100687.93;1711659;84;20235;-77
2022/07/25 03:43:05;;;;;;;;;;;;;;;16.64;53.71;100684.86;1712106;84;20220;-77
2022/07/25 03:45:30;;;;;;;;;;;;;;;16.66;53.77;100688.17;1712023;84;21955;-78
2022/07/25 03:47:57;;;;;;;;;;;;;;;16.70;53.82;100683.53;1712185;83;20234;-78
2022/07/25 03:50:22;;;;;;;;;;;;;;;16.74;53.87;100686.65;1712192;83;20193;-78
2022/07/25 03:52:49;;;;;;;;;;;;;;;16.79;53.95;100684.16;1712037;84;20169;-78
2022/07/25 03:55:14;;;;;;;;;;;;;;;16.86;53.94;100679.62;1712089;84;20152;-78
2022/07/25 03:57:40;;;;;;;;;;;;;;;16.98;54.02;100676.14;1712200;84;21896;-78
2022/07/25 04:00:08;;;;;;;;;;;;;;;17.16;54.03;100671.50;1711957;83;20175;-78
2022/07/25 04:02:34;;;;;;;;;;;;;;;17.67;54.25;100669.53;1712108;84;20177;-78
2022/07/25 04:05:00;;;;;;;;;;;;;;;19.07;54.24;100666.95;1712165;83;20762;-78
2022/07/25 04:07:26;;;;;;;;;;;;;;;20.44;53.44;100661.56;1712035;84;20263;-78
2022/07/25 04:09:52;;;;;;;;;;;;;;;21.49;52.59;100661.09;1712164;84;21110;-78
2022/07/25 04:12:17;;;;;;;;;;;;;;;22.18;51.69;100661.61;1712043;84;20188;-78
2022/07/25 04:14:43;;;;;;;;;;;;;;;22.88;51.09;100662.22;1712190;84;20216;-78
2022/07/25 04:17:09;;;;;;;;;;;;;;;23.60;50.31;100656.95;1711762;83;20235;-78
2022/07/25 04:19:35;;;;;;;;;;;;;;;24.12;49.32;100648.70;1712345;83;20199;-78
2022/07/25 04:22:01;;;;;;;;;;;;;;;24.20;48.53;100649.67;1711398;84;22127;-78
2022/07/25 04:24:27;;;;;;;;;;;;;;;24.52;47.96;100646.23;1711609;83;20546;-78
2022/07/25 04:26:52;;;;;;;;;;;;;;;24.64;47.41;100641.44;1712002;83;20199;-78
2022/07/25 04:29:18;;;;;;;;;;;;;;;25.25;46.72;100638.26;1712004;83;20717;-78
2022/07/25 04:31:44;;;;;;;;;;;;;;;25.56;45.87;100633.05;1711993;84;20267;-79
2022/07/25 04:34:10;;;;;;;;;;;;;;;25.54;45.22;100630.59;1712063;83;21780;-78
2022/07/25 04:36:36;;;;;;;;;;;;;;;25.70;44.66;100634.23;1711882;84;20251;-78
2022/07/25 04:39:01;;;;;;;;;;;;;;;26.00;44.17;100630.87;1711873;84;20736;-78
2022/07/25 04:41:27;;;;;;;;;;;;;;;26.19;43.42;100632.06;1711738;83;21237;-78
2022/07/25 04:43:53;;;;;;;;;;;;;;;26.46;43.12;100629.97;1711646;83;20852;-78
2022/07/25 04:46:19;;;;;;;;;;;;;;;26.51;42.12;100621.80;1711863;83;21851;-78
2022/07/25 04:48:45;;;;;;;;;;;;;;;25.95;41.81;100623.45;1711863;83;20161;-78
2022/07/25 04:51:11;;;;;;;;;;;;;;;25.47;41.81;100620.41;1711758;84;20779;-78
2022/07/25 04:53:37;;;;;;;;;;;;;;;25.14;42.16;100621.50;1711949;84;20176;-79
2022/07/25 04:56:03;;;;;;;;;;;;;;;24.88;42.45;100615.52;1711087;84;20236;-78
2022/07/25 04:58:30;;;;;;;;;;;;;;;24.79;42.65;100614.33;1737620;82;21870;-79
2022/07/25 05:00:56;;;;;;;;;;;;;;;24.58;42.62;100617.39;1709778;84;20157;-79
2022/07/25 05:03:22;;;;;;;;;;;;;;;24.67;42.75;100612.28;1709929;84;20185;-79
2022/07/25 05:05:48;;;;;;;;;;;;;;;24.65;42.71;100599.45;1709890;84;20758;-79
2022/07/25 05:08:14;;;;;;;;;;;;;;;24.69;42.58;100600.05;1709809;84;20197;-78
2022/07/25 05:10:40;;;;;;;;;;;;;;;24.51;42.45;100591.40;1709920;84;21909;-79
2022/07/25 05:13:06;;;;;;;;;;;;;;;24.56;42.33;100584.64;1709688;84;20161;-79
2022/07/25 05:15:32;;;;;;;;;;;;;;;24.83;42.35;100586.84;1709821;84;20356;-79
2022/07/25 05:17:57;;;;;;;;;;;;;;;24.88;42.11;100582.78;1709625;84;20692;-79
2022/07/25 05:20:23;;;;;;;;;;;;;;;24.91;42.04;100576.80;1709791;84;20188;-79
2022/07/25 05:22:49;;;;;;;;;;;;;;;24.83;41.83;100580.85;1709782;84;22471;-79
2022/07/25 05:25:15;;;;;;;;;;;;;;;24.89;41.81;100581.70;1709501;84;20207;-79
2022/07/25 05:27:41;;;;;;;;;;;;;;;25.04;41.74;100580.48;1709879;84;20815;-79
2022/07/25 05:30:08;;;;;;;;;;;;;;;24.94;41.55;100585.86;1709919;84;20617;-79
2022/07/25 05:32:33;;;;;;;;;;;;;;;25.13;41.49;100581.63;1710043;84;20177;-79
2022/07/25 05:34:59;;;;;;;;;;;;;;;25.03;41.24;100581.56;1709978;84;21216;-79
2022/07/25 05:37:25;;;;;;;;;;;;;;;24.88;41.21;100578.69;1709979;84;20255;-79
2022/07/25 05:39:51;;;;;;;;;;;;;;;24.96;41.14;100574.12;1710014;84;20287;-79
2022/07/25 05:42:17;;;;;;;;;;;;;;;25.12;40.92;100578.61;1709967;84;20768;-79
2022/07/25 05:44:42;;;;;;;;;;;;;;;25.16;40.76;100570.19;1710012;84;20239;-79
2022/07/25 05:47:11;;;;;;;;;;;;;;;25.34;40.64;100562.13;1709949;84;21750;-79
2022/07/25 05:49:37;;;;;;;;;;;;;;;25.45;40.45;100571.20;1710089;84;20896;-79
2022/07/25 05:52:04;;;;;;;;;;;;;;;25.60;40.27;100567.24;1709832;84;20622;-79
2022/07/25 05:54:29;;;;;;;;;;;;;;;25.87;40.05;100569.29;1710098;84;20622;-79
2022/07/25 05:56:55;;;;;;;;;;;;;;;25.94;39.71;100565.77;1710885;83;20167;-79
2022/07/25 05:59:21;;;;;;;;;;;;;;;25.73;39.52;100568.95;1711889;83;22735;-80
2022/07/25 06:01:47;;;;;;;;;;;;;;;25.62;39.41;100565.88;1712086;83;20270;-79
2022/07/25 06:04:13;;;;;;;;;;;;;;;25.62;39.28;100570.52;1712144;84;20188;-79
2022/07/25 06:06:39;;;;;;;;;;;;;;;25.94;39.37;100572.59;1711945;84;20692;-79
2022/07/25 06:09:05;;;;;;;;;;;;;;;26.18;39.11;100559.32;1711958;84;20259;-79
2022/07/25 06:11:31;;;;;;;;;;;;;;;26.10;38.89;100555.19;1712178;82;21881;-79
2022/07/25 06:13:57;;;;;;;;;;;;;;;25.83;38.73;100555.87;1711655;83;20173;-79
2022/07/25 06:16:23;;;;;;;;;;;;;;;25.86;38.72;100552.64;1711825;83;20336;-79
2022/07/25 06:18:49;;;;;;;;;;;;;;;25.90;38.72;100560.55;1705222;84;21336;-79
2022/07/25 06:21:15;;;;;;;;;;;;;;;25.89;38.57;100552.64;1711559;84;20188;-79
2022/07/25 06:23:41;;;;;;;;;;;;;;;25.88;38.51;100552.35;1712134;84;21914;-79
2022/07/25 06:26:08;;;;;;;;;;;;;;;25.95;38.21;100542.82;1711748;84;20816;-80
2022/07/25 06:28:36;;;;;;;;;;;;;;;25.90;38.15;100537.32;1711989;84;20450;-79
2022/07/25 06:31:02;;;;;;;;;;;;;;;25.83;38.07;100542.21;1711948;83;21348;-79
2022/07/25 06:33:28;;;;;;;;;;;;;;;25.88;38.01;100534.05;1723289;82;20177;-79
2022/07/25 06:35:53;;;;;;;;;;;;;;;25.86;37.80;100529.41;1736848;82;21847;-79
2022/07/25 06:38:19;;;;;;;;;;;;;;;25.93;37.84;100523.12;1736590;82;20748;-79
2022/07/25 06:40:45;;;;;;;;;;;;;;;25.87;37.67;100514.63;1736830;82;20260;-79
2022/07/25 06:43:11;;;;;;;;;;;;;;;26.00;37.71;100518.22;1736798;82;20691;-79
2022/07/25 06:45:37;;;;;;;;;;;;;;;26.15;37.53;100521.55;1736925;82;20150;-79
2022/07/25 06:48:03;;;;;;;;;;;;;;;26.27;37.51;100518.89;1736828;81;21136;-79
2022/07/25 06:50:30;;;;;;;;;;;;;;;26.68;37.40;100517.56;1736756;82;20948;-79
2022/07/25 06:52:56;;;;;;;;;;;;;;;27.10;37.23;100518.13;1736778;82;20138;-79
2022/07/25 06:55:21;;;;;;;;;;;;;;;26.98;36.87;100524.45;1736791;81;20697;-79
2022/07/25 06:57:47;;;;;;;;;;;;;;;26.71;36.70;100523.86;1729244;82;20253;-79
2022/07/25 07:00:14;;;;;;;;;;;;;;;26.25;36.56;100522.43;1726629;82;21823;-79
2022/07/25 07:02:50;;;;;;;;;;;;;;;26.23;36.60;100519.16;1726741;82;20127;-79
2022/07/25 07:05:16;;;;;;;;;;;;;;;26.14;36.51;100520.72;1726470;83;20182;-79
2022/07/25 07:07:42;;;;;;;;;;;;;;;26.21;36.62;100519.95;1726614;83;20726;-80
2022/07/25 07:10:08;;;;;;;;;;;;;;;26.48;36.69;100520.29;1726589;82;20828;-80
2022/07/25 07:12:34;;;;;;;;;;;;;;;26.79;36.71;100515.11;1726377;83;21841;-80
2022/07/25 07:15:00;;;;;;;;;;;;;;;27.18;36.65;100509.36;1726527;82;20181;-80
2022/07/25 07:17:26;;;;;;;;;;;;;;;27.51;36.49;100510.69;1726352;82;20191;-81
2022/07/25 07:19:51;;;;;;;;;;;;;;;27.34;36.27;100507.39;1726645;83;20613;-80
2022/07/25 07:22:17;;;;;;;;;;;;;;;27.41;36.30;100508.50;1726243;82;20265;-80
2022/07/25 07:24:43;;;;;;;;;;;;;;;27.48;36.13;100500.84;1726472;83;21901;-80
2022/07/25 07:27:09;;;;;;;;;;;;;;;27.58;35.98;100492.03;1726386;83;20240;-81
2022/07/25 07:29:35;;;;;;;;;;;;;;;27.61;35.75;100482.42;1726577;83;20797;-80
2022/07/25 07:32:01;;;;;;;;;;;;;;;27.52;35.62;100482.17;1726545;83;21180;-80
2022/07/25 07:34:27;;;;;;;;;;;;;;;27.39;35.25;100477.80;1726570;82;20193;-80
2022/07/25 07:36:52;;;;;;;;;;;;;;;27.50;35.10;100478.08;1726928;82;21751;-80
2022/07/25 07:39:18;;;;;;;;;;;;;;;27.84;34.75;100469.42;1726453;82;20177;-80
2022/07/25 07:41:44;;;;;;;;;;;;;;;28.11;34.54;100469.84;1726643;83;20188;-80
2022/07/25 07:44:10;;;;;;;;;;;;;;;28.31;34.25;100467.53;1726466;83;20789;-80
2022/07/25 07:46:36;;;;;;;;;;;;;;;28.34;34.01;100466.12;1726554;83;20126;-79
2022/07/25 07:49:02;;;;;;;;;;;;;;;28.48;33.75;100463.00;1726575;82;21980;-80
2022/07/25 07:51:28;;;;;;;;;;;;;;;28.38;33.27;100467.20;1726563;82;20280;-80
2022/07/25 07:56:38;;;;;;;;;;;;;;;28.74;33.02;100458.98;1726521;82;21349;-80
2022/07/25 07:59:04;;;;;;;;;;;;;;;28.82;32.32;100465.20;1726697;83;20213;-80
2022/07/25 08:01:30;;;;;;;;;;;;;;;28.80;32.26;100456.45;1726561;82;21879;-79
2022/07/25 08:03:56;;;;;;;;;;;;;;;28.91;31.99;100456.63;1726495;82;20464;-80
2022/07/25 08:06:22;;;;;;;;;;;;;;;29.07;31.93;100448.48;1726480;82;20166;-80
2022/07/25 08:08:48;;;;;;;;;;;;;;;29.20;31.69;100438.73;1726551;82;20660;-79
2022/07/25 08:11:13;;;;;;;;;;;;;;;29.35;31.62;100447.37;1726523;82;20197;-80
2022/07/25 08:13:39;;;;;;;;;;;;;;;29.63;31.47;100450.04;1726371;83;21796;-80
2022/07/25 08:16:05;;;;;;;;;;;;;;;29.73;30.94;100441.66;1726531;82;20894;-80
2022/07/25 08:18:31;;;;;;;;;;;;;;;29.28;30.11;100440.03;1726501;82;20422;-80
2022/07/25 08:20:59;;;;;;;;;;;;;;;29.30;30.19;100437.28;1726413;82;20630;-80
2022/07/25 08:23:26;;;;;;;;;;;;;;;29.59;30.29;100433.08;1726570;82;20482;-80
2022/07/25 08:25:52;;;;;;;;;;;;;;;29.81;30.23;100441.55;1726702;82;22658;-80
2022/07/25 08:28:18;;;;;;;;;;;;;;;29.88;30.03;100443.97;1726582;82;20773;-80
2022/07/25 08:30:44;;;;;;;;;;;;;;;30.11;29.91;100448.59;1726537;82;20422;-80
2022/07/25 08:33:16;;;;;;;;;;;;;;;30.22;29.82;100439.86;1726588;83;20699;-80
2022/07/25 08:35:40;;;;;;;;;;;;;;;30.37;29.60;100435.23;1725725;82;20150;-81
2022/07/25 08:38:06;;;;;;;;;;;;;;;30.27;29.41;100438.16;1726646;82;21772;-81
2022/07/25 08:40:32;;;;;;;;;;;;;;;30.24;29.31;100443.16;1720193;82;20785;-81
2022/07/25 08:42:58;;;;;;;;;;;;;;;30.32;29.15;100444.97;1710929;82;20151;-81
2022/07/25 08:45:25;;;;;;;;;;;;;;;30.06;28.71;100434.34;1713943;81;20713;-82
2022/07/25 08:47:51;;;;;;;;;;;;;;;30.13;28.67;100433.97;1715894;81;20192;-78
2022/07/25 08:50:22;;;;;;;;;;;;;;;30.22;28.58;100428.86;1719885;81;21827;-78
2022/07/25 08:52:48;;;;;;;;;;;;;;;30.42;28.64;100428.31;1715335;81;20163;-78
2022/07/25 08:55:18;;;;;;;;;;;;;;;30.33;28.27;100421.84;1718355;81;20135;-75
2022/07/25 08:57:45;;;;;;;;;;;;;;;30.43;28.25;100424.45;1711086;83;21425;-75
2022/07/25 09:00:14;;;;;;;;;;;;;;;30.16;27.61;100414.93;1706279;84;20400;-76
2022/07/25 09:02:40;;;;;;;;;;;;;;;30.02;27.31;100415.42;1696629;84;21294;-76
2022/07/25 09:05:07;;;;;;;;;;;;;;;30.11;27.43;100410.90;1700612;84;20196;-76
2022/07/25 09:07:38;;;;;;;;;;;;;;;30.35;27.48;100411.34;1704165;84;20108;-75
2022/07/25 09:10:17;;;;;;;;;;;;;;;30.48;27.29;100418.84;1702737;82;20616;-77
2022/07/25 09:12:52;;;;;;;;;;;;;;;30.49;27.30;100410.86;1695438;84;20421;-77
2022/07/25 09:15:22;;;;;;;;;;;;;;;30.61;27.19;100400.20;1709824;83;21777;-76
2022/07/25 09:17:51;;;;;;;;;;;;;;;30.45;26.99;100402.94;1709938;82;20424;-76
2022/07/25 09:20:17;;;;;;;;;;;;;;;30.21;26.77;100403.86;1704520;82;20104;-77
2022/07/25 09:22:43;;;;;;;;;;;;;;;30.31;26.71;100403.42;1707270;82;21374;-77
2022/07/25 09:25:23;;;;;;;;;;;;;;;30.34;26.80;100402.81;1708604;84;20397;-78
2022/07/25 09:27:49;;;;;;;;;;;;;;;30.45;26.75;100396.05;1701955;84;21768;-77
2022/07/25 09:30:15;;;;;;;;;;;;;;;30.44;26.76;100393.03;1711767;82;21015;-77
2022/07/25 09:32:41;;;;;;;;;;;;;;;30.41;26.59;100394.46;1706815;84;21400;-77
2022/07/25 09:35:07;;;;;;;;;;;;;;;30.40;26.64;100393.37;1707188;82;20603;-77
2022/07/25 09:37:32;;;;;;;;;;;;;;;30.40;26.42;100396.13;1671473;84;20813;-77
2022/07/25 09:39:59;;;;;;;;;;;;;;;30.43;26.57;100385.36;1700938;84;21931;-76
2022/07/25 09:42:31;;;;;;;;;;;;;;;30.48;26.56;100378.93;1707565;84;20145;-76
2022/07/25 09:45:02;;;;;;;;;;;;;;;30.62;26.63;100374.27;1667616;86;20426;-78
2022/07/25 09:47:29;;;;;;;;;;;;;;;30.71;26.64;100367.78;1709244;82;21278;-77
2022/07/25 09:49:55;;;;;;;;;;;;;;;30.96;26.73;100366.48;1709013;84;20477;-78
2022/07/25 09:52:21;;;;;;;;;;;;;;;31.22;26.71;100364.03;1706268;84;21812;-78
2022/07/25 09:54:47;;;;;;;;;;;;;;;31.40;26.65;100360.89;1708785;82;20869;-77
2022/07/25 09:57:13;;;;;;;;;;;;;;;31.27;26.26;100365.87;1705020;82;20424;-77
2022/07/25 09:59:39;;;;;;;;;;;;;;;31.30;26.33;100348.71;1729976;81;20667;-78
2022/07/25 10:02:37;;;;;;;;;;;;;;;31.41;26.34;100350.13;1729128;81;20237;-78
2022/07/25 10:05:19;;;;;;;;;;;;;;;31.59;26.41;100346.45;1706747;81;21844;-78
2022/07/25 10:07:46;;;;;;;;;;;;;;;31.45;25.98;100349.21;1717797;82;20197;-78
2022/07/25 10:10:23;;;;;;;;;;;;;;;31.63;26.01;100342.73;1710011;82;20488;-78
2022/07/25 10:13:02;;;;;;;;;;;;;;;31.65;25.87;100346.02;1731752;80;21021;-77
2022/07/25 10:15:46;;;;;;;;;;;;;;;31.48;25.47;100344.45;1714446;82;20151;-78
2022/07/25 10:18:13;;;;;;;;;;;;;;;31.54;25.66;100339.66;1719932;81;21819;-77
2022/07/25 10:20:38;;;;;;;;;;;;;;;31.52;25.22;100339.16;1716882;82;20159;-78
2022/07/25 10:23:06;;;;;;;;;;;;;;;31.53;25.24;100336.08;1707137;82;20783;-77
2022/07/25 10:25:32;;;;;;;;;;;;;;;31.43;25.08;100336.28;1721956;82;20741;-78
2022/07/25 10:28:01;;;;;;;;;;;;;;;31.58;25.12;100326.88;1741927;81;20802;-78
2022/07/25 10:30:29;;;;;;;;;;;;;;;31.56;24.91;100328.56;1735309;80;21939;-78
2022/07/25 10:33:01;;;;;;;;;;;;;;;31.33;24.71;100319.15;1731530;82;20456;-77
2022/07/25 10:35:27;;;;;;;;;;;;;;;31.36;24.90;100319.91;1744700;82;20144;-77
2022/07/25 10:37:54;;;;;;;;;;;;;;;31.35;24.46;100307.27;1740568;82;21661;-78
2022/07/25 10:40:27;;;;;;;;;;;;;;;31.30;24.52;100307.37;1741244;82;20158;-78
2022/07/25 10:43:09;;;;;;;;;;;;;;;31.33;24.66;100309.50;1739024;81;21835;-78
2022/07/25 10:45:39;;;;;;;;;;;;;;;31.59;24.67;100307.84;1731241;82;20261;-78
2022/07/25 10:48:08;;;;;;;;;;;;;;;31.68;24.65;100300.44;1725029;82;20458;-79
2022/07/25 10:50:34;;;;;;;;;;;;;;;31.80;24.65;100290.23;1722306;82;21308;-78
2022/07/25 10:53:00;;;;;;;;;;;;;;;32.03;24.66;100288.53;1724722;81;20149;-79
2022/07/25 10:55:27;;;;;;;;;;;;;;;32.12;24.38;100290.01;1732204;81;21799;-78
2022/07/25 10:58:05;;;;;;;;;;;;;;;32.25;24.35;100291.86;1738785;81;20150;-78
2022/07/25 11:00:32;;;;;;;;;;;;;;;32.10;23.93;100283.41;1738142;81;20121;-77
2022/07/25 11:02:58;;;;;;;;;;;;;;;32.10;24.11;100272.93;1738373;81;20684;-77
2022/07/25 11:05:24;;;;;;;;;;;;;;;31.96;24.00;100268.84;1741362;81;20160;-77
2022/07/25 11:07:53;;;;;;;;;;;;;;;31.92;23.96;100270.59;1741376;82;21793;-80
2022/07/25 11:10:25;;;;;;;;;;;;;;;32.12;24.03;100270.09;1723595;81;21103;-78
2022/07/25 11:12:52;;;;;;;;;;;;;;;31.98;23.78;100262.46;1767345;81;20150;-78
2022/07/25 11:15:22;;;;;;;;;;;;;;;32.12;23.77;100258.27;1766151;80;20679;-78
2022/07/25 11:17:51;;;;;;;;;;;;;;;32.12;23.74;100261.81;1731782;81;20401;-78
2022/07/25 11:20:18;;;;;;;;;;;;;;;32.03;23.56;100248.52;1738854;81;22069;-78
2022/07/25 11:22:51;;;;;;;;;;;;;;;32.14;23.68;100251.30;1731666;81;20153;-77
2022/07/25 11:25:19;;;;;;;;;;;;;;;32.17;23.57;100249.84;1718350;82;20150;-78
2022/07/25 11:27:48;;;;;;;;;;;;;;;32.19;23.66;100242.86;1712563;82;20684;-78
2022/07/25 11:30:16;;;;;;;;;;;;;;;32.28;23.72;100229.67;1730430;82;20159;-78
2022/07/25 11:32:45;;;;;;;;;;;;;;;32.39;23.58;100226.88;1752512;81;21863;-78
2022/07/25 11:35:12;;;;;;;;;;;;;;;32.31;23.58;100230.41;1722852;81;20205;-78
2022/07/25 11:37:38;;;;;;;;;;;;;;;32.15;23.51;100225.33;1727364;82;20094;-78
2022/07/25 11:40:05;;;;;;;;;;;;;;;32.00;23.64;100211.90;1766150;81;20658;-78
2022/07/25 11:42:38;;;;;;;;;;;;;;;32.01;23.64;100207.20;1743461;82;20169;-78
2022/07/25 11:45:17;;;;;;;;;;;;;;;32.01;23.68;100207.20;1730601;81;21734;-78
2022/07/25 11:47:43;;;;;;;;;;;;;;;32.27;23.79;100203.19;1734141;81;20155;-78
2022/07/25 11:50:13;;;;;;;;;;;;;;;32.48;23.68;100202.86;1734928;82;20203;-78
2022/07/25 11:52:36;;;;;;;;;;;;;;;32.53;23.65;100202.73;1734561;82;20572;-79
2022/07/25 11:55:04;;;;;;;;;;;;;;;32.56;23.75;100186.89;1736546;82;20441;-78
2022/07/25 11:57:32;;;;;;;;;;;;;;;32.60;23.91;100197.58;1726931;81;22640;-78
2022/07/25 11:59:59;;;;;;;;;;;;;;;32.57;23.90;100192.67;1709247;82;20117;-78
2022/07/25 12:02:27;;;;;;;;;;;;;;;32.48;23.68;100186.30;1720660;82;20150;-77
2022/07/25 12:04:57;;;;;;;;;;;;;;;32.36;23.83;100177.83;1717962;82;20619;-78
2022/07/25 12:07:48;;;;;;;;;;;;;;;32.43;23.88;100183.70;1722685;82;20150;-78
2022/07/25 12:10:23;;;;;;;;;;;;;;;32.60;23.85;100183.77;1723784;82;21831;-78
2022/07/25 12:12:50;;;;;;;;;;;;;;;32.56;23.67;100177.23;1725539;82;20451;-77
2022/07/25 12:15:19;;;;;;;;;;;;;;;32.46;23.69;100169.25;1726405;82;20122;-78
2022/07/25 12:17:45;;;;;;;;;;;;;;;32.64;23.75;100166.81;1737022;82;20542;-78
2022/07/25 12:20:19;;;;;;;;;;;;;;;32.61;23.70;100163.31;1737058;82;20346;-78
2022/07/25 12:22:45;;;;;;;;;;;;;;;32.69;23.59;100152.83;1737049;82;21835;-78
2022/07/25 12:25:11;;;;;;;;;;;;;;;32.68;23.50;100153.98;1716113;82;20167;-78
2022/07/25 12:27:37;;;;;;;;;;;;;;;32.73;23.41;100147.47;1735293;82;20232;-78
2022/07/25 12:30:04;;;;;;;;;;;;;;;32.88;23.47;100147.83;1719516;82;20671;-77
2022/07/25 12:32:30;;;;;;;;;;;;;;;32.92;23.44;100143.84;1724681;82;20098;-78
2022/07/25 12:34:56;;;;;;;;;;;;;;;32.96;23.43;100138.73;1720928;82;21792;-78
2022/07/25 12:37:22;;;;;;;;;;;;;;;32.96;23.45;100139.30;1719543;82;20752;-78
2022/07/25 12:39:48;;;;;;;;;;;;;;;32.91;23.38;100134.73;1715957;82;20282;-78